< < Back
Terminal Aerodrome Forecast


Current Version              Previous Versions:   1  2  3  4  5  6  7  8  9  

Terminal Aerodrome Forecast

307
FTUS42 KTAE 022108 AAA
TAFTLH
TAF AMD
KTLH 022108Z 0221/0318 34007KT P6SM VCSH SCT040 BKN100
     FM030000 23004KT P6SM BKN150
     FM031200 24008KT P6SM FEW030 SCT100=

Latest METAR

185
SAUS80 KWBC 031900 RRB
MTRTLH
METAR KTLH 031853Z 22007KT 10SM SCT050 SCT250 34/21 A3005 RMK AO2 SLP173
T03390211 $


USA.gov is the U.S. government's official web portal to all federal, state and local government web resources and services.